Messwerte Eiken

Temperatur

Temperatur
°C
1547722800 12.00 12.00
1547726400 13.00 13.00 7.7
1547730000 14.00 14.00 7.8
1547733600 15.00 15.00
1547737200 16.00 16.00
1547740800 17.00 17.00
1547744400 18.00 18.00
1547748000 19.00 19.00
1547751600 20.00 20.00
1547755200 21.00 21.00 4.6
1547758800 22.00 22.00 3.6
1547762400 23.00 23.00 3.5
1547766000 0.00 0.00 2.4
1547769600 1.00 1.00 2.6
1547773200 2.00 2.00 1.9
1547776800 3.00 3.00 1.9
1547780400 4.00 4.00
1547784000 5.00 5.00
1547787600 6.00 6.00
1547791200 7.00 7.00
1547794800 8.00 8.00
1547798400 9.00 9.00
1547802000 10.00 10.00 0.8
1547805600 11.00 11.00 1.3

Wir danken unserem Partner: Landi Eiken

Aktuellste Messwerte

Temperatur
1.3 °C
Feuchtigkeit
87 %
Wind
4 km/hWindrichtung: Nord
Böen
10 km/h
Niederschlag
0.0 mm
Luftdruck
1021.0 hPa
Globalstrahlung
95 W/m²
Messzeit: 18. Januar 2019, 11.00Datenquelle: MeteoNews Partner, Landi Eiken

Weitere Messstationen in der Nähe

Messstation Temperatur Entfernung
Schwörstadt 1.7 °C 11 km
Möhlin 0.3 °C 11 km
Oltingen -4.1 °C 13 km
Rünenberg -1.9 °C 14 km
Häfelfingen -0.3 °C 17 km
Zunzgen-Steinenweg 1.3 °C 17 km
Zunzgen -0.7 °C 17 km

Niederschlag

Niederschlagsmenge
mm
1547722800 12.00 11.00 - 12.00
1547726400 13.00 12.00 - 13.00
1547730000 14.00 13.00 - 14.00
1547733600 15.00 14.00 - 15.00
1547737200 16.00 15.00 - 16.00
1547740800 17.00 16.00 - 17.00
1547744400 18.00 17.00 - 18.00
1547748000 19.00 18.00 - 19.00
1547751600 20.00 19.00 - 20.00
1547755200 21.00 20.00 - 21.00 0.0
1547758800 22.00 21.00 - 22.00 0.0
1547762400 23.00 22.00 - 23.00 0.0
1547766000 0.00 23.00 - 0.00 0.4
1547769600 1.00 0.00 - 1.00 0.2
1547773200 2.00 1.00 - 2.00 0.2
1547776800 3.00 2.00 - 3.00
1547780400 4.00 3.00 - 4.00
1547784000 5.00 4.00 - 5.00
1547787600 6.00 5.00 - 6.00
1547791200 7.00 6.00 - 7.00
1547794800 8.00 7.00 - 8.00
1547798400 9.00 8.00 - 9.00
1547802000 10.00 9.00 - 10.00 0.0
1547805600 11.00 10.00 - 11.00 0.0

Wind

Windrichtung Böen Mittelwind
° km/h km/h
1547722800 12.00 11.00 - 12.00
1547726400 13.00 12.00 - 13.00
1547730000 14.00 13.00 - 14.00
1547733600 15.00 14.00 - 15.00
1547737200 16.00 15.00 - 16.00
1547740800 17.00 16.00 - 17.00
1547744400 18.00 17.00 - 18.00
1547748000 19.00 18.00 - 19.00
1547751600 20.00 19.00 - 20.00
1547755200 21.00 20.00 - 21.00
1547758800 22.00 21.00 - 22.00
1547762400 23.00 22.00 - 23.00
1547766000 0.00 23.00 - 0.00
1547769600 1.00 0.00 - 1.00
1547773200 2.00 1.00 - 2.00
1547776800 3.00 2.00 - 3.00
1547780400 4.00 3.00 - 4.00
1547784000 5.00 4.00 - 5.00
1547787600 6.00 5.00 - 6.00
1547791200 7.00 6.00 - 7.00
1547794800 8.00 7.00 - 8.00
1547798400 9.00 8.00 - 9.00
1547802000 10.00 9.00 - 10.00 360° 13
1547805600 11.00 10.00 - 11.00 360° 10 4

Ihre Wetterstation

Fehlt Ihre Wetterstation auf unserem Portal?

Schreiben Sie an network@meteonews.ch

Klima

Wann ist es am wärmsten? Wann regnet es am wenigsten? Unsere Klimadaten geben Auskunft.

Foto der Station

img